Disclaimer

Please do not use the information listed here in-flight or in-navigation, as they are not provided to us by the airports but are provided by volunteers, so they might be outdated.

Search


Regions


Airport information page

Radio informations:
Tower (TWR) - 118.0 MHz
Ground (GND) - 121.725 MHz
Automatic Terminal Information Service (ATIS) - 126.4 MHz
HONG KONG RDR - 126.3 MHz

Airport informations:
Latitude: 22° 08' 58.40" N
Longitude: 113° 35' 29.61" E
Elevation: 20 feet - 6 meters
Operating hours: 24 hour operations
Operating agency: Civil government, landing fees and diplomatic clearance may be required
Timezone: UTC+8
Fuel: N/A

Runway information:
16/34 - 10544 x 148 feet< - >3214 x 45 meters

Recent METARs:
VMMC 122000Z 36012KT 9999 FEW020 SCT035 24/21 Q1013 NOSIG
VMMC 122030Z 01010KT 9999 FEW020 SCT035 23/20 Q1013 NOSIG
VMMC 122100Z 36011KT 9999 FEW020 23/20 Q1013 NOSIG

Airport on the map: